sensor_id;sensor_type;location;lat;lon;timestamp;temperature;humidity
7576;DHT22;3829;50.798;4.358;2023-05-10T00:01:05;13.50;99.90
7576;DHT22;3829;50.798;4.358;2023-05-10T00:03:30;13.60;99.90
7576;DHT22;3829;50.798;4.358;2023-05-10T00:05:56;13.50;99.90
7576;DHT22;3829;50.798;4.358;2023-05-10T00:08:22;13.60;99.90
7576;DHT22;3829;50.798;4.358;2023-05-10T00:10:48;13.50;99.90
7576;DHT22;3829;50.798;4.358;2023-05-10T00:13:13;13.60;99.90
7576;DHT22;3829;50.798;4.358;2023-05-10T00:15:39;13.70;99.90
7576;DHT22;3829;50.798;4.358;2023-05-10T00:18:05;13.70;99.90
7576;DHT22;3829;50.798;4.358;2023-05-10T00:20:30;13.70;99.90
7576;DHT22;3829;50.798;4.358;2023-05-10T00:22:56;13.70;99.90
7576;DHT22;3829;50.798;4.358;2023-05-10T00:25:21;13.70;99.90
7576;DHT22;3829;50.798;4.358;2023-05-10T00:27:47;13.70;99.90
7576;DHT22;3829;50.798;4.358;2023-05-10T00:30:13;13.70;99.90
7576;DHT22;3829;50.798;4.358;2023-05-10T00:32:39;13.70;99.90
7576;DHT22;3829;50.798;4.358;2023-05-10T00:35:04;13.60;99.90
7576;DHT22;3829;50.798;4.358;2023-05-10T00:37:30;13.60;99.90
7576;DHT22;3829;50.798;4.358;2023-05-10T00:39:56;13.60;99.90
7576;DHT22;3829;50.798;4.358;2023-05-10T00:42:21;13.60;99.90
7576;DHT22;3829;50.798;4.358;2023-05-10T00:44:47;13.60;99.90
7576;DHT22;3829;50.798;4.358;2023-05-10T00:47:13;13.50;99.90
7576;DHT22;3829;50.798;4.358;2023-05-10T00:49:39;13.60;99.90
7576;DHT22;3829;50.798;4.358;2023-05-10T00:52:06;13.60;99.90
7576;DHT22;3829;50.798;4.358;2023-05-10T00:54:31;13.60;99.90
7576;DHT22;3829;50.798;4.358;2023-05-10T00:56:57;13.70;99.90
7576;DHT22;3829;50.798;4.358;2023-05-10T00:59:24;13.70;99.90
7576;DHT22;3829;50.798;4.358;2023-05-10T01:01:50;13.70;99.90
7576;DHT22;3829;50.798;4.358;2023-05-10T01:04:17;13.80;99.90
7576;DHT22;3829;50.798;4.358;2023-05-10T01:06:43;13.70;99.90
7576;DHT22;3829;50.798;4.358;2023-05-10T01:09:09;13.70;99.90
7576;DHT22;3829;50.798;4.358;2023-05-10T01:11:37;13.70;99.90
7576;DHT22;3829;50.798;4.358;2023-05-10T01:14:03;13.80;99.90
7576;DHT22;3829;50.798;4.358;2023-05-10T01:16:32;13.70;99.90
7576;DHT22;3829;50.798;4.358;2023-05-10T01:18:59;13.70;99.90
7576;DHT22;3829;50.798;4.358;2023-05-10T01:21:37;13.70;99.90
7576;DHT22;3829;50.798;4.358;2023-05-10T01:24:22;13.70;99.90
7576;DHT22;3829;50.798;4.358;2023-05-10T01:27:17;13.80;99.90
7576;DHT22;3829;50.798;4.358;2023-05-10T01:30:08;13.80;99.90
7576;DHT22;3829;50.798;4.358;2023-05-10T01:32:53;13.70;99.90
7576;DHT22;3829;50.798;4.358;2023-05-10T01:35:30;13.60;99.90
7576;DHT22;3829;50.798;4.358;2023-05-10T01:38:05;13.60;99.90
7576;DHT22;3829;50.798;4.358;2023-05-10T01:40:40;13.60;99.90
7576;DHT22;3829;50.798;4.358;2023-05-10T01:43:21;13.60;99.90
7576;DHT22;3829;50.798;4.358;2023-05-10T01:46:02;13.60;99.90
7576;DHT22;3829;50.798;4.358;2023-05-10T01:48:37;13.70;99.90
7576;DHT22;3829;50.798;4.358;2023-05-10T01:51:06;13.70;99.90
7576;DHT22;3829;50.798;4.358;2023-05-10T01:53:33;13.70;99.90
7576;DHT22;3829;50.798;4.358;2023-05-10T01:56:02;13.70;99.90
7576;DHT22;3829;50.798;4.358;2023-05-10T01:58:31;13.70;99.90
7576;DHT22;3829;50.798;4.358;2023-05-10T02:01:00;13.70;99.90
7576;DHT22;3829;50.798;4.358;2023-05-10T02:03:28;13.70;99.90
7576;DHT22;3829;50.798;4.358;2023-05-10T02:05:57;13.70;99.90
7576;DHT22;3829;50.798;4.358;2023-05-10T02:08:24;13.60;99.90
7576;DHT22;3829;50.798;4.358;2023-05-10T02:10:54;13.60;99.90
7576;DHT22;3829;50.798;4.358;2023-05-10T02:13:21;13.70;99.90
7576;DHT22;3829;50.798;4.358;2023-05-10T02:15:48;13.60;99.90
7576;DHT22;3829;50.798;4.358;2023-05-10T02:18:16;13.60;99.90
7576;DHT22;3829;50.798;4.358;2023-05-10T02:20:43;13.60;99.90
7576;DHT22;3829;50.798;4.358;2023-05-10T02:23:09;13.60;99.90
7576;DHT22;3829;50.798;4.358;2023-05-10T02:25:37;13.60;99.90
7576;DHT22;3829;50.798;4.358;2023-05-10T02:28:05;13.50;99.90
7576;DHT22;3829;50.798;4.358;2023-05-10T02:30:32;13.40;99.90
7576;DHT22;3829;50.798;4.358;2023-05-10T02:32:59;13.40;99.90
7576;DHT22;3829;50.798;4.358;2023-05-10T02:35:26;13.50;99.90
7576;DHT22;3829;50.798;4.358;2023-05-10T02:37:53;13.50;99.90
7576;DHT22;3829;50.798;4.358;2023-05-10T02:40:19;13.50;99.90
7576;DHT22;3829;50.798;4.358;2023-05-10T02:42:47;13.50;99.90
7576;DHT22;3829;50.798;4.358;2023-05-10T02:45:18;13.60;99.90
7576;DHT22;3829;50.798;4.358;2023-05-10T02:47:45;13.60;99.90
7576;DHT22;3829;50.798;4.358;2023-05-10T02:50:11;13.50;99.90
7576;DHT22;3829;50.798;4.358;2023-05-10T02:52:47;13.40;99.90
7576;DHT22;3829;50.798;4.358;2023-05-10T02:55:16;13.40;99.90
7576;DHT22;3829;50.798;4.358;2023-05-10T02:57:51;13.40;99.90
7576;DHT22;3829;50.798;4.358;2023-05-10T03:00:17;13.40;99.90
7576;DHT22;3829;50.798;4.358;2023-05-10T03:02:43;13.30;99.90
7576;DHT22;3829;50.798;4.358;2023-05-10T03:05:08;13.30;99.90
7576;DHT22;3829;50.798;4.358;2023-05-10T03:07:34;13.30;99.90
7576;DHT22;3829;50.798;4.358;2023-05-10T03:10:00;13.30;99.90
7576;DHT22;3829;50.798;4.358;2023-05-10T03:15:25;13.50;99.90
7576;DHT22;3829;50.798;4.358;2023-05-10T03:20:35;13.50;99.90
7576;DHT22;3829;50.798;4.358;2023-05-10T03:23:12;13.30;99.90
7576;DHT22;3829;50.798;4.358;2023-05-10T03:25:40;13.20;99.90
7576;DHT22;3829;50.798;4.358;2023-05-10T03:28:06;13.20;99.90
7576;DHT22;3829;50.798;4.358;2023-05-10T03:30:33;13.20;99.90
7576;DHT22;3829;50.798;4.358;2023-05-10T03:33:04;13.20;99.90
7576;DHT22;3829;50.798;4.358;2023-05-10T03:35:31;13.30;99.90
7576;DHT22;3829;50.798;4.358;2023-05-10T03:37:57;13.30;99.90
7576;DHT22;3829;50.798;4.358;2023-05-10T03:40:23;13.30;99.90
7576;DHT22;3829;50.798;4.358;2023-05-10T03:42:49;13.30;99.90
7576;DHT22;3829;50.798;4.358;2023-05-10T03:45:14;13.30;99.90
7576;DHT22;3829;50.798;4.358;2023-05-10T03:47:40;13.30;99.90
7576;DHT22;3829;50.798;4.358;2023-05-10T03:50:06;13.40;99.90
7576;DHT22;3829;50.798;4.358;2023-05-10T03:52:32;13.30;99.90
7576;DHT22;3829;50.798;4.358;2023-05-10T03:54:58;13.30;99.90
7576;DHT22;3829;50.798;4.358;2023-05-10T03:57:24;13.30;99.90
7576;DHT22;3829;50.798;4.358;2023-05-10T03:59:49;13.30;99.90
7576;DHT22;3829;50.798;4.358;2023-05-10T04:02:15;13.30;99.90
7576;DHT22;3829;50.798;4.358;2023-05-10T04:04:41;13.40;99.90
7576;DHT22;3829;50.798;4.358;2023-05-10T04:07:07;13.40;99.90
7576;DHT22;3829;50.798;4.358;2023-05-10T04:09:32;13.30;99.90
7576;DHT22;3829;50.798;4.358;2023-05-10T04:11:59;13.40;99.90
7576;DHT22;3829;50.798;4.358;2023-05-10T04:14:25;13.40;99.90
7576;DHT22;3829;50.798;4.358;2023-05-10T04:16:50;13.40;99.90
7576;DHT22;3829;50.798;4.358;2023-05-10T04:19:16;13.30;99.90
7576;DHT22;3829;50.798;4.358;2023-05-10T04:21:42;13.40;99.90
7576;DHT22;3829;50.798;4.358;2023-05-10T04:24:07;13.30;99.90
7576;DHT22;3829;50.798;4.358;2023-05-10T04:26:33;13.20;99.90
7576;DHT22;3829;50.798;4.358;2023-05-10T04:28:58;13.20;99.90
7576;DHT22;3829;50.798;4.358;2023-05-10T04:31:24;13.10;99.90
7576;DHT22;3829;50.798;4.358;2023-05-10T04:33:50;13.10;99.90
7576;DHT22;3829;50.798;4.358;2023-05-10T04:36:15;13.10;99.90
7576;DHT22;3829;50.798;4.358;2023-05-10T04:38:41;13.00;99.90
7576;DHT22;3829;50.798;4.358;2023-05-10T04:41:08;13.00;99.90
7576;DHT22;3829;50.798;4.358;2023-05-10T04:43:34;12.90;99.90
7576;DHT22;3829;50.798;4.358;2023-05-10T04:46:00;12.90;99.90
7576;DHT22;3829;50.798;4.358;2023-05-10T04:48:26;12.90;99.90
7576;DHT22;3829;50.798;4.358;2023-05-10T04:50:51;12.90;99.90
7576;DHT22;3829;50.798;4.358;2023-05-10T04:53:17;13.00;99.90
7576;DHT22;3829;50.798;4.358;2023-05-10T04:55:43;12.90;99.90
7576;DHT22;3829;50.798;4.358;2023-05-10T04:58:08;12.90;99.90
7576;DHT22;3829;50.798;4.358;2023-05-10T05:00:34;12.80;99.90
7576;DHT22;3829;50.798;4.358;2023-05-10T05:02:59;12.80;99.90
7576;DHT22;3829;50.798;4.358;2023-05-10T05:05:25;12.80;99.90
7576;DHT22;3829;50.798;4.358;2023-05-10T05:07:51;12.80;99.90
7576;DHT22;3829;50.798;4.358;2023-05-10T05:10:16;12.80;99.90
7576;DHT22;3829;50.798;4.358;2023-05-10T05:12:42;12.80;99.90
7576;DHT22;3829;50.798;4.358;2023-05-10T05:15:08;12.80;99.90
7576;DHT22;3829;50.798;4.358;2023-05-10T05:17:35;12.80;99.90
7576;DHT22;3829;50.798;4.358;2023-05-10T05:20:00;12.90;99.90
7576;DHT22;3829;50.798;4.358;2023-05-10T05:22:26;12.90;99.90
7576;DHT22;3829;50.798;4.358;2023-05-10T05:24:54;13.00;99.90
7576;DHT22;3829;50.798;4.358;2023-05-10T05:27:20;12.90;99.90
7576;DHT22;3829;50.798;4.358;2023-05-10T05:29:50;13.00;99.90
7576;DHT22;3829;50.798;4.358;2023-05-10T05:32:17;12.90;99.90
7576;DHT22;3829;50.798;4.358;2023-05-10T05:34:44;13.00;99.90
7576;DHT22;3829;50.798;4.358;2023-05-10T05:37:19;13.00;99.90
7576;DHT22;3829;50.798;4.358;2023-05-10T05:39:46;12.90;99.90
7576;DHT22;3829;50.798;4.358;2023-05-10T05:42:12;12.90;99.90
7576;DHT22;3829;50.798;4.358;2023-05-10T05:44:39;12.90;99.90
7576;DHT22;3829;50.798;4.358;2023-05-10T05:47:05;12.90;99.90
7576;DHT22;3829;50.798;4.358;2023-05-10T05:49:31;12.90;99.90
7576;DHT22;3829;50.798;4.358;2023-05-10T05:52:01;12.90;99.90
7576;DHT22;3829;50.798;4.358;2023-05-10T05:54:27;12.90;99.90
7576;DHT22;3829;50.798;4.358;2023-05-10T05:56:55;12.70;99.90
7576;DHT22;3829;50.798;4.358;2023-05-10T05:59:21;12.70;99.90
7576;DHT22;3829;50.798;4.358;2023-05-10T06:01:47;12.70;99.90
7576;DHT22;3829;50.798;4.358;2023-05-10T06:04:12;12.60;99.90
7576;DHT22;3829;50.798;4.358;2023-05-10T06:06:38;12.50;99.90
7576;DHT22;3829;50.798;4.358;2023-05-10T06:09:04;12.30;99.90
7576;DHT22;3829;50.798;4.358;2023-05-10T06:11:29;12.30;99.90
7576;DHT22;3829;50.798;4.358;2023-05-10T06:13:57;12.20;99.90
7576;DHT22;3829;50.798;4.358;2023-05-10T06:16:23;12.20;99.90
7576;DHT22;3829;50.798;4.358;2023-05-10T06:18:48;12.30;99.90
7576;DHT22;3829;50.798;4.358;2023-05-10T06:21:14;12.30;99.90
7576;DHT22;3829;50.798;4.358;2023-05-10T06:23:40;12.30;99.90
7576;DHT22;3829;50.798;4.358;2023-05-10T06:26:05;12.30;99.90
7576;DHT22;3829;50.798;4.358;2023-05-10T06:28:31;12.40;99.90
7576;DHT22;3829;50.798;4.358;2023-05-10T06:30:59;12.40;99.90
7576;DHT22;3829;50.798;4.358;2023-05-10T06:33:24;12.40;99.90
7576;DHT22;3829;50.798;4.358;2023-05-10T06:35:50;12.40;99.90
7576;DHT22;3829;50.798;4.358;2023-05-10T06:38:15;12.30;99.90
7576;DHT22;3829;50.798;4.358;2023-05-10T06:40:41;12.40;99.90
7576;DHT22;3829;50.798;4.358;2023-05-10T06:43:07;12.50;99.90
7576;DHT22;3829;50.798;4.358;2023-05-10T06:45:33;12.50;99.90
7576;DHT22;3829;50.798;4.358;2023-05-10T06:47:59;12.50;99.90
7576;DHT22;3829;50.798;4.358;2023-05-10T06:50:25;12.40;99.90
7576;DHT22;3829;50.798;4.358;2023-05-10T06:52:50;12.40;99.90
7576;DHT22;3829;50.798;4.358;2023-05-10T06:55:16;12.40;99.90
7576;DHT22;3829;50.798;4.358;2023-05-10T06:57:41;12.40;99.90
7576;DHT22;3829;50.798;4.358;2023-05-10T07:00:07;12.30;99.90
7576;DHT22;3829;50.798;4.358;2023-05-10T07:02:35;12.30;99.90
7576;DHT22;3829;50.798;4.358;2023-05-10T07:05:00;12.50;99.90
7576;DHT22;3829;50.798;4.358;2023-05-10T07:07:26;12.50;99.90
7576;DHT22;3829;50.798;4.358;2023-05-10T07:09:52;12.60;99.90
7576;DHT22;3829;50.798;4.358;2023-05-10T07:12:17;12.80;99.90
7576;DHT22;3829;50.798;4.358;2023-05-10T07:14:43;12.80;99.90
7576;DHT22;3829;50.798;4.358;2023-05-10T07:17:09;12.80;99.90
7576;DHT22;3829;50.798;4.358;2023-05-10T07:19:35;12.90;99.90
7576;DHT22;3829;50.798;4.358;2023-05-10T07:22:01;12.80;99.90
7576;DHT22;3829;50.798;4.358;2023-05-10T07:24:27;12.70;99.90
7576;DHT22;3829;50.798;4.358;2023-05-10T07:26:52;12.60;99.90
7576;DHT22;3829;50.798;4.358;2023-05-10T07:29:18;12.50;99.90
7576;DHT22;3829;50.798;4.358;2023-05-10T07:31:43;12.40;99.90
7576;DHT22;3829;50.798;4.358;2023-05-10T07:34:09;12.50;99.90
7576;DHT22;3829;50.798;4.358;2023-05-10T07:36:35;12.60;99.90
7576;DHT22;3829;50.798;4.358;2023-05-10T07:39:01;12.80;99.90
7576;DHT22;3829;50.798;4.358;2023-05-10T07:41:26;12.90;99.90
7576;DHT22;3829;50.798;4.358;2023-05-10T07:43:52;13.00;99.90
7576;DHT22;3829;50.798;4.358;2023-05-10T07:46:18;13.00;99.90
7576;DHT22;3829;50.798;4.358;2023-05-10T07:48:45;13.00;99.90
7576;DHT22;3829;50.798;4.358;2023-05-10T07:51:10;12.80;99.90
7576;DHT22;3829;50.798;4.358;2023-05-10T07:53:37;12.80;99.90
7576;DHT22;3829;50.798;4.358;2023-05-10T07:56:22;12.80;99.90
7576;DHT22;3829;50.798;4.358;2023-05-10T07:58:48;13.00;99.90
7576;DHT22;3829;50.798;4.358;2023-05-10T08:01:14;12.90;99.90
7576;DHT22;3829;50.798;4.358;2023-05-10T08:03:39;13.00;99.90
7576;DHT22;3829;50.798;4.358;2023-05-10T08:06:05;13.00;99.90
7576;DHT22;3829;50.798;4.358;2023-05-10T08:08:31;13.20;99.90
7576;DHT22;3829;50.798;4.358;2023-05-10T08:10:57;13.20;99.90
7576;DHT22;3829;50.798;4.358;2023-05-10T08:13:22;13.10;99.90
7576;DHT22;3829;50.798;4.358;2023-05-10T08:15:48;13.10;99.90
7576;DHT22;3829;50.798;4.358;2023-05-10T08:18:13;13.20;99.90
7576;DHT22;3829;50.798;4.358;2023-05-10T08:20:39;13.30;99.90
7576;DHT22;3829;50.798;4.358;2023-05-10T08:23:05;13.40;99.90
7576;DHT22;3829;50.798;4.358;2023-05-10T08:25:31;13.40;99.90
7576;DHT22;3829;50.798;4.358;2023-05-10T08:27:57;13.50;99.90
7576;DHT22;3829;50.798;4.358;2023-05-10T08:30:22;13.70;99.90
7576;DHT22;3829;50.798;4.358;2023-05-10T08:32:48;13.90;99.90
7576;DHT22;3829;50.798;4.358;2023-05-10T08:35:13;13.90;99.90
7576;DHT22;3829;50.798;4.358;2023-05-10T08:37:39;13.90;99.90
7576;DHT22;3829;50.798;4.358;2023-05-10T08:40:05;14.00;99.90
7576;DHT22;3829;50.798;4.358;2023-05-10T08:42:34;13.90;99.90
7576;DHT22;3829;50.798;4.358;2023-05-10T08:45:02;13.80;99.90
7576;DHT22;3829;50.798;4.358;2023-05-10T08:47:29;13.70;99.90
7576;DHT22;3829;50.798;4.358;2023-05-10T08:49:55;13.80;99.90
7576;DHT22;3829;50.798;4.358;2023-05-10T08:52:23;13.70;99.90
7576;DHT22;3829;50.798;4.358;2023-05-10T08:54:50;13.70;99.90
7576;DHT22;3829;50.798;4.358;2023-05-10T08:57:16;13.70;99.90
7576;DHT22;3829;50.798;4.358;2023-05-10T08:59:41;13.70;99.90
7576;DHT22;3829;50.798;4.358;2023-05-10T09:02:09;13.60;99.90
7576;DHT22;3829;50.798;4.358;2023-05-10T09:04:35;13.50;99.90
7576;DHT22;3829;50.798;4.358;2023-05-10T09:07:01;13.60;99.90
7576;DHT22;3829;50.798;4.358;2023-05-10T09:09:27;13.60;99.90
7576;DHT22;3829;50.798;4.358;2023-05-10T09:11:53;13.70;99.90
7576;DHT22;3829;50.798;4.358;2023-05-10T09:14:19;13.70;99.90
7576;DHT22;3829;50.798;4.358;2023-05-10T09:16:45;13.70;99.90
7576;DHT22;3829;50.798;4.358;2023-05-10T09:19:12;13.70;99.90
7576;DHT22;3829;50.798;4.358;2023-05-10T09:21:37;13.70;99.90
7576;DHT22;3829;50.798;4.358;2023-05-10T09:24:05;13.70;99.90
7576;DHT22;3829;50.798;4.358;2023-05-10T09:26:31;13.60;99.90
7576;DHT22;3829;50.798;4.358;2023-05-10T09:28:58;13.40;99.90
7576;DHT22;3829;50.798;4.358;2023-05-10T09:31:24;13.30;99.90
7576;DHT22;3829;50.798;4.358;2023-05-10T09:34:08;13.30;99.90
7576;DHT22;3829;50.798;4.358;2023-05-10T09:36:33;13.10;99.90
7576;DHT22;3829;50.798;4.358;2023-05-10T09:38:59;13.20;99.90
7576;DHT22;3829;50.798;4.358;2023-05-10T09:41:25;13.30;99.90
7576;DHT22;3829;50.798;4.358;2023-05-10T09:43:55;13.40;99.90
7576;DHT22;3829;50.798;4.358;2023-05-10T09:46:21;13.40;99.90
7576;DHT22;3829;50.798;4.358;2023-05-10T09:48:48;13.40;99.90
7576;DHT22;3829;50.798;4.358;2023-05-10T09:51:20;13.40;99.90
7576;DHT22;3829;50.798;4.358;2023-05-10T09:53:47;13.30;99.90
7576;DHT22;3829;50.798;4.358;2023-05-10T09:56:12;13.20;99.90
7576;DHT22;3829;50.798;4.358;2023-05-10T09:58:39;13.20;99.90
7576;DHT22;3829;50.798;4.358;2023-05-10T10:01:11;13.10;99.90
7576;DHT22;3829;50.798;4.358;2023-05-10T10:03:42;13.10;99.90
7576;DHT22;3829;50.798;4.358;2023-05-10T10:06:11;13.10;99.90
7576;DHT22;3829;50.798;4.358;2023-05-10T10:08:43;13.10;99.90
7576;DHT22;3829;50.798;4.358;2023-05-10T10:11:09;13.20;99.90
7576;DHT22;3829;50.798;4.358;2023-05-10T10:13:35;13.10;99.90
7576;DHT22;3829;50.798;4.358;2023-05-10T10:16:00;13.10;99.90
7576;DHT22;3829;50.798;4.358;2023-05-10T10:18:26;13.30;99.90
7576;DHT22;3829;50.798;4.358;2023-05-10T10:20:54;13.40;99.90
7576;DHT22;3829;50.798;4.358;2023-05-10T10:23:21;13.60;99.90
7576;DHT22;3829;50.798;4.358;2023-05-10T10:25:46;13.80;99.90
7576;DHT22;3829;50.798;4.358;2023-05-10T10:31:01;13.90;99.90
7576;DHT22;3829;50.798;4.358;2023-05-10T10:33:51;14.10;99.90
7576;DHT22;3829;50.798;4.358;2023-05-10T10:36:17;14.30;99.90
7576;DHT22;3829;50.798;4.358;2023-05-10T10:38:55;14.10;99.90
7576;DHT22;3829;50.798;4.358;2023-05-10T10:44:26;14.30;99.90
7576;DHT22;3829;50.798;4.358;2023-05-10T10:47:04;14.20;99.90
7576;DHT22;3829;50.798;4.358;2023-05-10T10:49:33;14.30;99.90
7576;DHT22;3829;50.798;4.358;2023-05-10T10:54:50;14.70;99.90
7576;DHT22;3829;50.798;4.358;2023-05-10T10:57:18;14.60;99.90
7576;DHT22;3829;50.798;4.358;2023-05-10T10:59:45;14.80;99.90
7576;DHT22;3829;50.798;4.358;2023-05-10T11:02:32;14.90;99.90
7576;DHT22;3829;50.798;4.358;2023-05-10T11:04:58;14.90;99.90
7576;DHT22;3829;50.798;4.358;2023-05-10T11:07:23;15.30;99.90
7576;DHT22;3829;50.798;4.358;2023-05-10T11:09:49;15.40;99.90
7576;DHT22;3829;50.798;4.358;2023-05-10T11:12:15;15.40;99.90
7576;DHT22;3829;50.798;4.358;2023-05-10T11:14:42;15.60;99.90
7576;DHT22;3829;50.798;4.358;2023-05-10T11:17:26;16.10;99.90
7576;DHT22;3829;50.798;4.358;2023-05-10T11:20:10;16.00;99.90
7576;DHT22;3829;50.798;4.358;2023-05-10T11:22:49;16.40;99.90
7576;DHT22;3829;50.798;4.358;2023-05-10T11:25:16;16.70;99.90
7576;DHT22;3829;50.798;4.358;2023-05-10T11:27:41;16.80;99.90
7576;DHT22;3829;50.798;4.358;2023-05-10T11:30:09;16.90;99.90
7576;DHT22;3829;50.798;4.358;2023-05-10T11:32:37;16.70;99.90
7576;DHT22;3829;50.798;4.358;2023-05-10T11:35:08;16.80;99.90
7576;DHT22;3829;50.798;4.358;2023-05-10T11:37:33;16.70;99.90
7576;DHT22;3829;50.798;4.358;2023-05-10T11:40:00;16.50;99.90
7576;DHT22;3829;50.798;4.358;2023-05-10T11:42:26;16.80;99.90
7576;DHT22;3829;50.798;4.358;2023-05-10T11:44:52;17.30;99.90
7576;DHT22;3829;50.798;4.358;2023-05-10T11:47:18;17.70;99.90
7576;DHT22;3829;50.798;4.358;2023-05-10T11:49:44;18.00;99.90
7576;DHT22;3829;50.798;4.358;2023-05-10T11:52:10;18.00;99.90
7576;DHT22;3829;50.798;4.358;2023-05-10T11:54:37;17.70;99.90
7576;DHT22;3829;50.798;4.358;2023-05-10T11:57:03;17.50;99.90
7576;DHT22;3829;50.798;4.358;2023-05-10T11:59:28;17.20;99.90
7576;DHT22;3829;50.798;4.358;2023-05-10T12:01:54;17.40;99.90
7576;DHT22;3829;50.798;4.358;2023-05-10T12:04:20;17.70;99.90
7576;DHT22;3829;50.798;4.358;2023-05-10T12:06:46;18.00;99.90
7576;DHT22;3829;50.798;4.358;2023-05-10T12:09:12;17.60;99.90
7576;DHT22;3829;50.798;4.358;2023-05-10T12:11:39;18.20;99.90
7576;DHT22;3829;50.798;4.358;2023-05-10T12:14:06;18.40;99.90
7576;DHT22;3829;50.798;4.358;2023-05-10T12:16:32;18.50;99.90
7576;DHT22;3829;50.798;4.358;2023-05-10T12:18:59;18.00;99.90
7576;DHT22;3829;50.798;4.358;2023-05-10T12:21:25;18.20;99.90
7576;DHT22;3829;50.798;4.358;2023-05-10T12:23:53;18.80;99.90
7576;DHT22;3829;50.798;4.358;2023-05-10T12:26:22;18.50;99.90
7576;DHT22;3829;50.798;4.358;2023-05-10T12:28:48;18.60;99.90
7576;DHT22;3829;50.798;4.358;2023-05-10T12:31:14;19.00;99.90
7576;DHT22;3829;50.798;4.358;2023-05-10T12:33:41;18.90;99.90
7576;DHT22;3829;50.798;4.358;2023-05-10T12:36:09;19.10;99.90
7576;DHT22;3829;50.798;4.358;2023-05-10T12:38:38;18.90;99.90
7576;DHT22;3829;50.798;4.358;2023-05-10T12:41:06;18.90;99.90
7576;DHT22;3829;50.798;4.358;2023-05-10T12:43:33;18.40;99.90
7576;DHT22;3829;50.798;4.358;2023-05-10T12:46:05;18.50;99.90
7576;DHT22;3829;50.798;4.358;2023-05-10T12:48:31;18.80;99.90
7576;DHT22;3829;50.798;4.358;2023-05-10T12:50:59;18.90;99.90
7576;DHT22;3829;50.798;4.358;2023-05-10T12:53:25;18.80;99.90
7576;DHT22;3829;50.798;4.358;2023-05-10T12:55:51;19.10;99.90
7576;DHT22;3829;50.798;4.358;2023-05-10T12:58:16;19.30;99.90
7576;DHT22;3829;50.798;4.358;2023-05-10T13:00:42;19.10;99.90
7576;DHT22;3829;50.798;4.358;2023-05-10T13:03:09;18.80;99.90
7576;DHT22;3829;50.798;4.358;2023-05-10T13:05:35;18.20;99.90
7576;DHT22;3829;50.798;4.358;2023-05-10T13:08:01;18.20;99.90
7576;DHT22;3829;50.798;4.358;2023-05-10T13:10:29;18.40;99.90
7576;DHT22;3829;50.798;4.358;2023-05-10T13:12:54;19.00;99.90
7576;DHT22;3829;50.798;4.358;2023-05-10T13:15:20;19.10;99.90
7576;DHT22;3829;50.798;4.358;2023-05-10T13:17:46;19.40;99.90
7576;DHT22;3829;50.798;4.358;2023-05-10T13:20:11;19.40;99.90
7576;DHT22;3829;50.798;4.358;2023-05-10T13:22:37;19.50;99.90
7576;DHT22;3829;50.798;4.358;2023-05-10T13:25:03;19.80;99.90
7576;DHT22;3829;50.798;4.358;2023-05-10T13:27:28;20.60;99.90
7576;DHT22;3829;50.798;4.358;2023-05-10T13:29:54;20.30;99.90
7576;DHT22;3829;50.798;4.358;2023-05-10T13:32:20;20.60;99.90
7576;DHT22;3829;50.798;4.358;2023-05-10T13:34:46;20.10;99.90
7576;DHT22;3829;50.798;4.358;2023-05-10T13:37:12;19.90;99.90
7576;DHT22;3829;50.798;4.358;2023-05-10T13:39:37;19.00;99.90
7576;DHT22;3829;50.798;4.358;2023-05-10T13:42:04;19.00;99.90
7576;DHT22;3829;50.798;4.358;2023-05-10T13:44:30;19.50;99.90
7576;DHT22;3829;50.798;4.358;2023-05-10T13:46:56;20.20;99.90
7576;DHT22;3829;50.798;4.358;2023-05-10T13:49:22;20.80;99.90
7576;DHT22;3829;50.798;4.358;2023-05-10T13:51:48;21.20;99.90
7576;DHT22;3829;50.798;4.358;2023-05-10T13:54:13;21.10;99.90
7576;DHT22;3829;50.798;4.358;2023-05-10T13:56:42;21.00;99.90
7576;DHT22;3829;50.798;4.358;2023-05-10T13:59:09;21.10;99.90
7576;DHT22;3829;50.798;4.358;2023-05-10T14:01:34;21.00;99.90
7576;DHT22;3829;50.798;4.358;2023-05-10T14:04:00;21.00;99.90
7576;DHT22;3829;50.798;4.358;2023-05-10T14:06:25;20.60;99.90
7576;DHT22;3829;50.798;4.358;2023-05-10T14:08:53;20.40;99.90
7576;DHT22;3829;50.798;4.358;2023-05-10T14:11:19;20.00;99.90
7576;DHT22;3829;50.798;4.358;2023-05-10T14:13:45;19.80;99.90
7576;DHT22;3829;50.798;4.358;2023-05-10T14:16:10;19.50;99.90
7576;DHT22;3829;50.798;4.358;2023-05-10T14:18:37;19.30;99.90
7576;DHT22;3829;50.798;4.358;2023-05-10T14:21:03;18.90;99.90
7576;DHT22;3829;50.798;4.358;2023-05-10T14:23:29;19.20;99.90
7576;DHT22;3829;50.798;4.358;2023-05-10T14:25:55;19.30;99.90
7576;DHT22;3829;50.798;4.358;2023-05-10T14:28:21;19.60;99.90
7576;DHT22;3829;50.798;4.358;2023-05-10T14:30:48;20.10;99.90
7576;DHT22;3829;50.798;4.358;2023-05-10T14:33:13;20.30;99.90
7576;DHT22;3829;50.798;4.358;2023-05-10T14:35:39;20.40;99.90
7576;DHT22;3829;50.798;4.358;2023-05-10T14:38:05;20.00;99.90
7576;DHT22;3829;50.798;4.358;2023-05-10T14:40:31;19.90;99.90
7576;DHT22;3829;50.798;4.358;2023-05-10T14:42:56;19.30;99.90
7576;DHT22;3829;50.798;4.358;2023-05-10T14:45:22;19.00;99.90
7576;DHT22;3829;50.798;4.358;2023-05-10T14:47:49;19.10;99.90
7576;DHT22;3829;50.798;4.358;2023-05-10T14:50:15;19.10;99.90
7576;DHT22;3829;50.798;4.358;2023-05-10T14:52:42;18.80;99.90
7576;DHT22;3829;50.798;4.358;2023-05-10T14:55:08;18.90;99.90
7576;DHT22;3829;50.798;4.358;2023-05-10T14:57:33;18.40;99.90
7576;DHT22;3829;50.798;4.358;2023-05-10T14:59:59;17.90;99.90
7576;DHT22;3829;50.798;4.358;2023-05-10T15:02:25;17.40;99.90
7576;DHT22;3829;50.798;4.358;2023-05-10T15:04:50;17.30;99.90
7576;DHT22;3829;50.798;4.358;2023-05-10T15:07:16;16.80;99.90
7576;DHT22;3829;50.798;4.358;2023-05-10T15:09:44;16.30;99.90
7576;DHT22;3829;50.798;4.358;2023-05-10T15:12:09;16.20;99.90
7576;DHT22;3829;50.798;4.358;2023-05-10T15:14:35;16.20;99.90
7576;DHT22;3829;50.798;4.358;2023-05-10T15:17:02;16.10;99.90
7576;DHT22;3829;50.798;4.358;2023-05-10T15:19:27;15.80;99.90
7576;DHT22;3829;50.798;4.358;2023-05-10T15:21:54;15.80;99.90
7576;DHT22;3829;50.798;4.358;2023-05-10T15:24:21;15.80;99.90
7576;DHT22;3829;50.798;4.358;2023-05-10T15:26:46;15.90;99.90
7576;DHT22;3829;50.798;4.358;2023-05-10T15:29:12;15.90;99.90
7576;DHT22;3829;50.798;4.358;2023-05-10T15:31:48;15.70;99.90
7576;DHT22;3829;50.798;4.358;2023-05-10T15:34:14;15.80;99.90
7576;DHT22;3829;50.798;4.358;2023-05-10T15:36:40;15.90;99.90
7576;DHT22;3829;50.798;4.358;2023-05-10T15:39:05;16.00;99.90
7576;DHT22;3829;50.798;4.358;2023-05-10T15:41:31;15.80;99.90
7576;DHT22;3829;50.798;4.358;2023-05-10T15:43:57;16.10;99.90
7576;DHT22;3829;50.798;4.358;2023-05-10T15:46:25;16.40;99.90
7576;DHT22;3829;50.798;4.358;2023-05-10T15:48:51;16.70;99.90
7576;DHT22;3829;50.798;4.358;2023-05-10T15:51:16;16.80;99.90
7576;DHT22;3829;50.798;4.358;2023-05-10T15:53:42;17.20;99.90
7576;DHT22;3829;50.798;4.358;2023-05-10T15:56:07;17.30;99.90
7576;DHT22;3829;50.798;4.358;2023-05-10T15:58:33;17.60;99.90
7576;DHT22;3829;50.798;4.358;2023-05-10T16:00:59;17.90;99.90
7576;DHT22;3829;50.798;4.358;2023-05-10T16:03:25;17.80;99.90
7576;DHT22;3829;50.798;4.358;2023-05-10T16:05:50;17.90;99.90
7576;DHT22;3829;50.798;4.358;2023-05-10T16:08:16;17.90;99.90
7576;DHT22;3829;50.798;4.358;2023-05-10T16:10:42;18.10;99.90
7576;DHT22;3829;50.798;4.358;2023-05-10T16:13:07;18.10;99.90
7576;DHT22;3829;50.798;4.358;2023-05-10T16:15:33;18.20;99.90